createdAt,value
2022-09-05T00:01:47.320Z,4.15
2022-09-05T00:04:36.078Z,3.85
2022-09-05T00:07:37.384Z,3.67
2022-09-05T00:10:22.846Z,4.47
2022-09-05T00:13:07.475Z,4.50
2022-09-05T00:15:48.967Z,4.07
2022-09-05T00:24:19.194Z,4.07
2022-09-05T00:24:22.267Z,4.28
2022-09-05T00:24:54.723Z,4.20
2022-09-05T00:27:21.183Z,4.47
2022-09-05T00:31:51.869Z,4.15
2022-09-05T00:33:19.055Z,4.90
2022-09-05T00:35:57.980Z,5.07
2022-09-05T00:38:33.468Z,5.60
2022-09-05T00:41:12.970Z,4.40
2022-09-05T00:43:43.356Z,4.72
2022-09-05T00:46:26.817Z,4.82
2022-09-05T00:49:16.356Z,4.60
2022-09-05T00:52:00.402Z,4.28
2022-09-05T00:54:41.066Z,4.38
2022-09-05T00:57:30.708Z,3.90
2022-09-05T01:00:18.110Z,3.90
2022-09-05T01:03:10.096Z,4.93
2022-09-05T01:05:45.809Z,4.70
2022-09-05T01:08:46.809Z,4.43
2022-09-05T01:11:32.838Z,4.28
2022-09-05T01:14:21.336Z,4.70
2022-09-05T01:16:54.470Z,4.45
2022-09-05T01:19:53.344Z,4.90
2022-09-05T01:22:38.397Z,4.65
2022-09-05T01:25:23.932Z,4.47
2022-09-05T01:29:13.007Z,4.95
2022-09-05T01:31:23.814Z,4.43
2022-09-05T01:34:14.977Z,4.80
2022-09-05T01:36:53.981Z,4.20
2022-09-05T01:40:14.548Z,4.95
2022-09-05T01:43:14.408Z,4.28
2022-09-05T01:46:00.975Z,4.32
2022-09-05T01:48:48.916Z,4.15
2022-09-05T01:51:28.634Z,4.85
2022-09-05T01:54:10.155Z,4.22
2022-09-05T01:57:19.691Z,3.90
2022-09-05T02:02:36.660Z,3.47
2022-09-05T02:05:49.204Z,3.58
2022-09-05T02:08:16.338Z,3.83
2022-09-05T02:11:09.885Z,3.60
2022-09-05T02:13:36.797Z,3.40
2022-09-05T02:16:25.947Z,3.45
2022-09-05T02:18:55.558Z,3.63
2022-09-05T02:21:28.184Z,3.78
2022-09-05T02:24:07.224Z,4.35
2022-09-05T02:26:51.534Z,3.97
2022-09-05T02:29:44.020Z,3.40
2022-09-05T02:32:21.288Z,3.65
2022-09-05T02:35:06.992Z,4.15
2022-09-05T02:41:32.056Z,3.83
2022-09-05T02:45:12.358Z,3.75
2022-09-05T02:45:12.933Z,3.90
2022-09-05T02:46:30.651Z,4.18
2022-09-05T02:49:00.553Z,3.45
2022-09-05T02:57:25.371Z,3.60
2022-09-05T02:57:34.406Z,4.18
2022-09-05T02:58:07.250Z,4.38
2022-09-05T03:00:51.033Z,4.28
2022-09-05T03:03:36.032Z,4.40
2022-09-05T03:06:34.237Z,4.10
2022-09-05T03:09:17.077Z,4.65
2022-09-05T03:12:27.106Z,4.85
2022-09-05T03:15:22.152Z,4.78
2022-09-05T03:17:55.222Z,4.25
2022-09-05T03:21:15.573Z,4.35
2022-09-05T03:24:05.466Z,5.00
2022-09-05T03:27:02.114Z,4.60
2022-09-05T03:29:46.915Z,4.82
2022-09-05T03:32:49.147Z,4.60
2022-09-05T03:35:31.253Z,4.35
2022-09-05T03:38:10.591Z,4.05
2022-09-05T03:40:59.722Z,4.40
2022-09-05T03:43:47.902Z,3.92
2022-09-05T03:46:23.773Z,4.25
2022-09-05T03:50:47.904Z,4.68
2022-09-05T03:54:57.047Z,4.50
2022-09-05T03:57:27.725Z,4.63
2022-09-05T03:58:55.950Z,4.35
2022-09-05T04:03:05.747Z,4.82
2022-09-05T04:08:13.434Z,4.18
2022-09-05T04:11:01.601Z,4.70
2022-09-05T04:13:33.953Z,4.13
2022-09-05T04:16:06.460Z,3.78
2022-09-05T04:18:51.909Z,5.50
2022-09-05T04:21:29.961Z,4.40
2022-09-05T04:24:25.526Z,4.30
2022-09-05T04:27:17.168Z,4.10
2022-09-05T04:30:39.630Z,3.90
2022-09-05T04:33:19.967Z,4.03
2022-09-05T04:36:18.333Z,4.53
2022-09-05T04:38:46.535Z,4.22
2022-09-05T04:41:21.379Z,3.72
2022-09-05T04:44:16.438Z,5.03
2022-09-05T04:46:56.630Z,5.28
2022-09-05T04:49:45.483Z,4.03
2022-09-05T04:52:36.764Z,4.07
2022-09-05T04:55:16.052Z,3.90
2022-09-05T04:57:48.847Z,3.97
2022-09-05T05:06:01.881Z,3.95
2022-09-05T05:06:15.111Z,3.17
2022-09-05T05:06:42.304Z,3.92
2022-09-05T05:09:17.499Z,3.90
2022-09-05T05:17:56.266Z,4.25
2022-09-05T05:17:58.509Z,4.00
2022-09-05T05:18:13.402Z,4.03
2022-09-05T05:21:07.709Z,4.40
2022-09-05T05:23:43.538Z,3.58
2022-09-05T05:26:20.887Z,3.42
2022-09-05T05:28:51.941Z,3.58
2022-09-05T05:31:29.481Z,3.47
2022-09-05T05:34:02.227Z,5.20
2022-09-05T05:36:36.480Z,3.50
2022-09-05T05:39:12.709Z,4.53
2022-09-05T05:41:48.794Z,4.63
2022-09-05T05:44:19.743Z,5.13
2022-09-05T05:46:58.364Z,4.20
2022-09-05T05:49:34.451Z,3.15
2022-09-05T05:52:19.423Z,4.45
2022-09-05T05:55:23.703Z,3.95
2022-09-05T05:58:06.702Z,4.20
2022-09-05T06:00:52.047Z,4.75
2022-09-05T06:03:47.982Z,3.42
2022-09-05T06:06:59.445Z,3.22
2022-09-05T06:14:56.141Z,3.00
2022-09-05T06:15:04.805Z,3.10
2022-09-05T06:16:13.915Z,3.08
2022-09-05T06:19:12.136Z,3.50
2022-09-05T06:22:09.629Z,2.85
2022-09-05T06:25:17.370Z,3.10
2022-09-05T06:28:08.738Z,3.22
2022-09-05T06:31:30.798Z,2.97
2022-09-05T06:34:32.614Z,3.25
2022-09-05T06:37:33.453Z,2.60
2022-09-05T06:40:18.418Z,2.42
2022-09-05T06:43:22.727Z,1.80
2022-09-05T06:45:58.699Z,2.35
2022-09-05T06:49:32.119Z,2.30
2022-09-05T06:52:29.545Z,2.60
2022-09-05T06:55:35.617Z,2.10
2022-09-05T06:58:36.400Z,2.17
2022-09-05T07:01:08.895Z,2.28
2022-09-05T07:05:24.817Z,2.45
2022-09-05T07:07:27.620Z,2.10
2022-09-05T07:10:22.151Z,2.50
2022-09-05T07:13:25.003Z,2.97
2022-09-05T07:16:26.522Z,2.85
2022-09-05T07:19:29.908Z,1.80
2022-09-05T07:22:47.040Z,2.30
2022-09-05T07:25:26.324Z,1.92
2022-09-05T07:28:29.163Z,2.15
2022-09-05T07:30:52.952Z,2.53
2022-09-05T07:33:28.780Z,1.80
2022-09-05T07:36:05.578Z,2.20
2022-09-05T07:38:55.071Z,2.30
2022-09-05T07:41:30.742Z,2.28
2022-09-05T07:44:18.373Z,2.13
2022-09-05T07:46:56.488Z,2.00
2022-09-05T07:49:27.977Z,2.40
2022-09-05T07:56:55.698Z,2.20
2022-09-05T07:56:56.543Z,1.80
2022-09-05T07:57:51.044Z,1.63
2022-09-05T08:00:27.219Z,1.90
2022-09-05T08:03:01.248Z,2.15
2022-09-05T08:05:39.323Z,2.20
2022-09-05T08:08:11.739Z,2.50
2022-09-05T08:11:23.277Z,2.10
2022-09-05T08:13:46.590Z,2.20
2022-09-05T08:16:21.302Z,1.92
2022-09-05T08:19:26.110Z,3.83
2022-09-05T08:24:26.492Z,1.67
2022-09-05T08:27:04.898Z,2.05
2022-09-05T08:29:41.129Z,2.17
2022-09-05T08:32:25.321Z,2.05
2022-09-05T08:37:30.843Z,2.10
2022-09-05T08:40:11.082Z,1.45
2022-09-05T08:43:44.369Z,1.73
2022-09-05T08:46:40.815Z,2.25
2022-09-05T08:49:19.070Z,2.00
2022-09-05T08:52:14.705Z,1.67
2022-09-05T08:54:47.194Z,1.65
2022-09-05T08:57:45.226Z,1.67
2022-09-05T09:00:24.535Z,1.63
2022-09-05T09:03:27.405Z,2.17
2022-09-05T09:06:16.019Z,2.05
2022-09-05T09:08:55.717Z,2.38
2022-09-05T09:11:36.650Z,2.42
2022-09-05T09:14:31.754Z,2.78
2022-09-05T09:17:17.904Z,10.10
2022-09-05T09:19:59.789Z,2.22
2022-09-05T09:22:57.195Z,2.58
2022-09-05T09:25:38.882Z,2.25
2022-09-05T09:28:49.488Z,3.03
2022-09-05T09:31:29.845Z,2.90
2022-09-05T09:34:21.226Z,2.17
2022-09-05T09:37:03.626Z,2.38
2022-09-05T09:39:47.022Z,2.85
2022-09-05T09:42:33.167Z,2.72
2022-09-05T09:45:27.775Z,2.20
2022-09-05T09:48:10.767Z,2.30
2022-09-05T09:50:49.202Z,2.75
2022-09-05T09:53:44.845Z,2.28
2022-09-05T09:56:14.746Z,2.38
2022-09-05T09:59:08.429Z,2.13
2022-09-05T10:01:54.503Z,2.28
2022-09-05T10:10:40.053Z,2.72
2022-09-05T10:11:00.444Z,2.08
2022-09-05T10:11:55.409Z,2.20
2022-09-05T10:15:30.325Z,2.50
2022-09-05T10:17:58.537Z,2.10
2022-09-05T10:20:31.165Z,2.35
2022-09-05T10:23:04.207Z,1.50
2022-09-05T10:26:01.426Z,1.70
2022-09-05T10:28:43.805Z,1.63
2022-09-05T10:32:32.652Z,1.83
2022-09-05T10:35:12.865Z,1.90
2022-09-05T10:37:45.474Z,1.63
2022-09-05T10:40:17.823Z,1.90
2022-09-05T10:42:58.168Z,1.92
2022-09-05T10:45:49.515Z,1.73
2022-09-05T10:48:36.758Z,2.00
2022-09-05T10:51:27.331Z,1.55
2022-09-05T10:54:15.202Z,1.50
2022-09-05T10:56:55.720Z,10.00
2022-09-05T11:02:20.876Z,2.50
2022-09-05T11:02:34.860Z,3.30
2022-09-05T11:05:08.215Z,1.20
2022-09-05T11:08:05.241Z,1.98
2022-09-05T11:10:35.265Z,1.30
2022-09-05T11:13:47.637Z,1.63
2022-09-05T11:16:49.382Z,1.58
2022-09-05T11:19:28.783Z,1.50
2022-09-05T11:22:21.889Z,1.65
2022-09-05T11:25:00.110Z,1.25
2022-09-05T11:27:34.938Z,1.27
2022-09-05T11:30:08.233Z,1.80
2022-09-05T11:36:06.900Z,1.50
2022-09-05T11:39:57.302Z,2.00
2022-09-05T11:40:05.032Z,1.40
2022-09-05T11:42:16.071Z,1.92
2022-09-05T11:45:14.110Z,1.40
2022-09-05T11:48:17.581Z,1.52
2022-09-05T11:50:56.645Z,1.50
2022-09-05T11:53:46.864Z,1.38
2022-09-05T11:56:35.726Z,1.75
2022-09-05T11:59:44.105Z,1.58
2022-09-05T12:02:32.924Z,1.98
2022-09-05T12:05:48.965Z,1.90
2022-09-05T12:08:38.328Z,1.92
2022-09-05T12:11:05.500Z,1.48
2022-09-05T12:13:42.814Z,1.42
2022-09-05T12:16:27.056Z,1.33
2022-09-05T12:19:37.865Z,1.75
2022-09-05T12:22:18.681Z,1.17
2022-09-05T12:25:24.474Z,1.50
2022-09-05T12:27:53.784Z,1.38
2022-09-05T12:30:58.655Z,1.58
2022-09-05T12:36:08.711Z,1.40
2022-09-05T12:40:21.310Z,1.60
2022-09-05T12:40:45.151Z,1.33
2022-09-05T12:44:34.876Z,1.67
2022-09-05T12:45:50.375Z,1.40
2022-09-05T12:48:38.625Z,1.10
2022-09-05T12:51:45.826Z,1.38
2022-09-05T12:54:32.650Z,1.90
2022-09-05T13:01:30.571Z,1.55
2022-09-05T13:03:04.769Z,1.80
2022-09-05T13:03:09.167Z,1.70
2022-09-05T13:05:51.856Z,1.67
2022-09-05T13:08:23.842Z,1.60
2022-09-05T13:14:47.955Z,1.50
2022-09-05T13:14:59.903Z,1.80
2022-09-05T13:16:41.885Z,2.13
2022-09-05T13:19:22.739Z,1.90
2022-09-05T13:21:52.937Z,1.70
2022-09-05T13:24:30.599Z,2.33
2022-09-05T13:27:20.530Z,1.67
2022-09-05T13:30:51.826Z,1.70
2022-09-05T13:37:55.275Z,1.50
2022-09-05T13:38:28.908Z,1.40
2022-09-05T13:39:07.853Z,0.95
2022-09-05T13:41:44.777Z,1.40
2022-09-05T13:44:25.396Z,1.40
2022-09-05T13:47:29.897Z,1.52
2022-09-05T13:50:37.265Z,1.90
2022-09-05T13:53:26.282Z,1.65
2022-09-05T13:56:03.198Z,1.30
2022-09-05T13:59:00.026Z,1.35
2022-09-05T14:01:36.004Z,1.90
2022-09-05T14:04:13.669Z,1.67
2022-09-05T14:07:44.068Z,1.20
2022-09-05T14:09:54.769Z,1.67
2022-09-05T14:12:31.423Z,1.30
2022-09-05T14:15:43.062Z,1.30
2022-09-05T14:18:20.607Z,1.70
2022-09-05T14:21:16.822Z,1.42
2022-09-05T14:24:16.996Z,1.70
2022-09-05T14:27:00.504Z,1.67
2022-09-05T14:29:36.076Z,1.58
2022-09-05T14:37:39.804Z,1.17
2022-09-05T14:37:43.859Z,1.40
2022-09-05T14:38:14.824Z,1.40
2022-09-05T14:41:20.410Z,1.98
2022-09-05T14:44:15.643Z,2.08
2022-09-05T14:47:10.035Z,1.52
2022-09-05T14:50:04.948Z,1.70
2022-09-05T14:52:35.534Z,1.60
2022-09-05T15:02:42.726Z,1.38
2022-09-05T15:02:51.985Z,1.55
2022-09-05T15:06:39.330Z,1.33
2022-09-05T15:11:29.511Z,1.80
2022-09-05T15:12:32.994Z,1.50
2022-09-05T15:15:07.059Z,1.70
2022-09-05T15:17:35.159Z,1.50
2022-09-05T15:20:07.423Z,1.40
2022-09-05T15:22:37.536Z,1.53
2022-09-05T15:25:23.422Z,1.70
2022-09-05T15:27:50.934Z,1.70
2022-09-05T15:30:22.379Z,1.95
2022-09-05T15:33:11.691Z,1.38
2022-09-05T15:35:42.464Z,1.23
2022-09-05T15:38:25.145Z,1.73
2022-09-05T15:41:24.328Z,1.63
2022-09-05T15:44:13.530Z,1.40
2022-09-05T15:46:59.771Z,1.50
2022-09-05T15:49:53.827Z,1.45
2022-09-05T15:55:12.168Z,1.65
2022-09-05T15:57:46.208Z,1.70
2022-09-05T16:00:38.448Z,1.50
2022-09-05T16:05:46.352Z,1.65
2022-09-05T16:10:34.562Z,1.75
2022-09-05T16:10:43.606Z,1.50
2022-09-05T16:12:14.041Z,1.75
2022-09-05T16:14:56.472Z,1.63
2022-09-05T16:23:17.586Z,1.92
2022-09-05T16:23:27.787Z,2.35
2022-09-05T16:23:40.394Z,1.95
2022-09-05T16:26:14.208Z,1.98
2022-09-05T16:28:57.173Z,2.07
2022-09-05T16:31:47.522Z,2.17
2022-09-05T16:34:32.105Z,2.38
2022-09-05T16:37:08.234Z,1.88
2022-09-05T16:39:41.101Z,2.60
2022-09-05T16:42:17.574Z,2.53
2022-09-05T16:44:54.135Z,1.85
2022-09-05T16:47:50.941Z,1.92
2022-09-05T16:50:48.044Z,2.30
2022-09-05T16:53:30.855Z,2.05
2022-09-05T16:56:10.025Z,2.45
2022-09-05T16:58:42.287Z,2.67
2022-09-05T17:01:28.197Z,2.10
2022-09-05T17:04:07.011Z,2.40
2022-09-05T17:06:53.839Z,2.10
2022-09-05T17:09:27.541Z,2.25
2022-09-05T17:12:01.992Z,2.42
2022-09-05T17:14:41.084Z,2.50
2022-09-05T17:17:54.130Z,2.33
2022-09-05T17:27:55.460Z,2.60
2022-09-05T17:29:26.945Z,2.00
2022-09-05T17:29:50.489Z,2.35
2022-09-05T17:31:57.266Z,2.42
2022-09-05T17:34:36.277Z,2.50
2022-09-05T17:37:22.347Z,2.65
2022-09-05T17:40:20.118Z,2.53
2022-09-05T17:43:01.536Z,2.78
2022-09-05T17:45:29.955Z,2.65
2022-09-05T17:47:59.939Z,2.55
2022-09-05T17:50:28.099Z,2.67
2022-09-05T17:53:26.865Z,2.30
2022-09-05T17:55:55.025Z,2.55
2022-09-05T17:58:47.517Z,2.28
2022-09-05T18:01:26.804Z,2.28
2022-09-05T18:04:06.821Z,2.50
2022-09-05T18:06:59.832Z,2.63
2022-09-05T18:09:40.093Z,2.85
2022-09-05T18:12:15.396Z,2.53
2022-09-05T18:17:46.947Z,2.20
2022-09-05T18:20:25.638Z,2.60
2022-09-05T18:23:37.495Z,2.75
2022-09-05T18:26:20.957Z,2.83
2022-09-05T18:28:57.224Z,2.72
2022-09-05T18:31:40.845Z,3.20
2022-09-05T18:34:14.800Z,3.38
2022-09-05T18:36:42.367Z,3.00
2022-09-05T18:39:38.369Z,2.60
2022-09-05T18:42:26.272Z,2.40
2022-09-05T18:44:59.485Z,2.63
2022-09-05T18:47:34.109Z,3.22
2022-09-05T18:50:26.815Z,2.83
2022-09-05T18:53:10.103Z,2.90
2022-09-05T18:56:11.205Z,3.67
2022-09-05T18:58:52.015Z,3.85
2022-09-05T19:01:31.341Z,3.50
2022-09-05T19:04:02.674Z,3.70
2022-09-05T19:06:36.809Z,2.90
2022-09-05T19:09:15.088Z,2.97
2022-09-05T19:11:53.169Z,3.13
2022-09-05T19:14:47.589Z,3.33
2022-09-05T19:17:32.617Z,3.30
2022-09-05T19:20:30.586Z,3.10
2022-09-05T19:23:10.970Z,2.83
2022-09-05T19:25:44.953Z,3.28
2022-09-05T19:34:17.217Z,3.13
2022-09-05T19:36:55.589Z,3.22
2022-09-05T19:36:58.520Z,2.83
2022-09-05T19:42:31.939Z,3.30
2022-09-05T19:47:27.670Z,3.63
2022-09-05T19:47:47.382Z,4.28
2022-09-05T19:48:28.731Z,3.28
2022-09-05T19:50:57.857Z,3.58
2022-09-05T19:53:25.317Z,3.70
2022-09-05T19:55:53.893Z,3.55
2022-09-05T19:58:24.081Z,3.78
2022-09-05T20:01:03.101Z,3.45
2022-09-05T20:03:39.468Z,3.97
2022-09-05T20:06:31.370Z,3.95
2022-09-05T20:09:22.691Z,3.85
2022-09-05T20:11:57.975Z,3.70
2022-09-05T20:14:24.811Z,3.45
2022-09-05T20:16:54.169Z,3.55
2022-09-05T20:19:33.036Z,3.47
2022-09-05T20:22:47.972Z,3.67
2022-09-05T20:25:01.813Z,3.67
2022-09-05T20:27:30.272Z,4.22
2022-09-05T20:30:01.837Z,3.40
2022-09-05T20:32:39.686Z,3.60
2022-09-05T20:39:03.913Z,3.45
2022-09-05T20:43:17.263Z,3.63
2022-09-05T20:43:21.191Z,4.10
2022-09-05T20:44:17.112Z,3.85
2022-09-05T20:51:31.598Z,3.85
2022-09-05T20:54:16.615Z,3.95
2022-09-05T20:54:19.247Z,3.95
2022-09-05T20:55:42.869Z,3.15
2022-09-05T20:58:11.897Z,4.25
2022-09-05T21:01:19.629Z,3.53
2022-09-05T21:03:39.995Z,3.95
2022-09-05T21:06:33.348Z,3.53
2022-09-05T21:09:24.919Z,3.80
2022-09-05T21:11:58.634Z,4.38
2022-09-05T21:14:28.742Z,3.40
2022-09-05T21:17:06.667Z,4.13
2022-09-05T21:19:43.838Z,3.60
2022-09-05T21:22:21.086Z,3.45
2022-09-05T21:24:48.999Z,3.88
2022-09-05T21:27:25.764Z,3.55
2022-09-05T21:29:59.473Z,3.70
2022-09-05T21:32:37.915Z,3.38
2022-09-05T21:35:34.055Z,3.65
2022-09-05T21:37:59.057Z,3.28
2022-09-05T21:40:25.821Z,3.38
2022-09-05T21:46:18.984Z,4.07
2022-09-05T21:47:41.335Z,3.75
2022-09-05T21:48:27.627Z,3.65
2022-09-05T21:51:02.648Z,3.60
2022-09-05T21:59:14.176Z,3.78
2022-09-05T21:59:25.701Z,4.03
2022-09-05T21:59:45.442Z,3.45
2022-09-05T22:02:16.674Z,3.28
2022-09-05T22:04:43.903Z,3.38
2022-09-05T22:07:26.367Z,3.22
2022-09-05T22:09:59.442Z,3.13
2022-09-05T22:12:35.987Z,3.17
2022-09-05T22:15:29.211Z,3.05
2022-09-05T22:18:14.749Z,2.85
2022-09-05T22:20:46.138Z,3.15
2022-09-05T22:23:20.404Z,3.30
2022-09-05T22:25:47.222Z,3.55
2022-09-05T22:28:20.863Z,3.28
2022-09-05T22:30:55.667Z,3.75
2022-09-05T22:33:25.053Z,2.95
2022-09-05T22:35:51.834Z,3.63
2022-09-05T22:38:20.176Z,3.13
2022-09-05T22:40:47.875Z,3.83
2022-09-05T22:43:16.360Z,3.60
2022-09-05T22:45:46.353Z,3.53
2022-09-05T22:48:14.620Z,3.30
2022-09-05T22:50:44.881Z,3.03
2022-09-05T22:53:11.770Z,3.40
2022-09-05T22:55:41.336Z,3.38
2022-09-05T22:58:10.754Z,3.42
2022-09-05T23:00:37.991Z,3.10
2022-09-05T23:03:06.832Z,3.38
2022-09-05T23:05:34.061Z,3.17
2022-09-05T23:08:02.119Z,3.20
2022-09-05T23:10:30.469Z,3.42
2022-09-05T23:12:58.131Z,3.25
2022-09-05T23:15:26.383Z,3.38
2022-09-05T23:17:59.189Z,3.40
2022-09-05T23:20:28.015Z,2.65
2022-09-05T23:22:54.995Z,4.30
2022-09-05T23:25:22.400Z,3.60
2022-09-05T23:27:50.222Z,3.67
2022-09-05T23:30:17.088Z,3.45
2022-09-05T23:32:47.756Z,3.25
2022-09-05T23:35:15.495Z,3.63
2022-09-05T23:37:45.963Z,3.17
2022-09-05T23:40:14.515Z,3.50
2022-09-05T23:42:41.812Z,3.38
2022-09-05T23:45:09.391Z,3.42
2022-09-05T23:47:36.496Z,3.40
2022-09-05T23:50:04.220Z,3.30
2022-09-05T23:52:31.230Z,3.20
2022-09-05T23:54:58.133Z,3.72
2022-09-05T23:57:26.013Z,3.35
2022-09-05T23:59:53.004Z,3.72
